Time;durP1;ratioP1;P1;durP2;ratioP2;P2;SDS_P1;SDS_P2;PMS_P1;PMS_P2;Temp;Humidity;BMP_temperature;BMP_pressure;BME280_temperature;BME280_humidity;BME280_pressure;Samples;Min_cycle;Max_cycle;Signal;HPM_P1;HPM_P2
2022/05/26 00:00:10;;;;;;;2.03;0.85;;;;;;;17.04;55.56;101680.41;5004528;28;20146;-61
2022/05/26 00:02:38;;;;;;;1.63;0.98;;;;;;;17.03;56.10;101684.19;5002893;28;20098;-61
2022/05/26 00:05:08;;;;;;;3.63;0.95;;;;;;;17.03;55.82;101685.03;5003169;28;20093;-61
2022/05/26 00:07:35;;;;;;;2.20;0.77;;;;;;;17.02;55.87;101677.94;4998122;28;20165;-62
2022/05/26 00:10:04;;;;;;;3.28;1.13;;;;;;;17.01;56.12;101679.00;5004260;28;20077;-62
2022/05/26 00:12:32;;;;;;;3.78;0.90;;;;;;;17.02;55.92;101674.41;5004191;28;20077;-61
2022/05/26 00:15:00;;;;;;;2.67;1.00;;;;;;;17.02;55.88;101674.41;5002499;28;20085;-61
2022/05/26 00:17:28;;;;;;;3.58;1.38;;;;;;;17.01;55.87;101668.16;5002641;28;20444;-61
2022/05/26 00:19:58;;;;;;;1.95;0.90;;;;;;;17.00;56.09;101666.50;5003597;28;20065;-61
2022/05/26 00:22:27;;;;;;;3.13;1.35;;;;;;;16.98;55.95;101673.25;5003831;28;20046;-61
2022/05/26 00:24:55;;;;;;;3.80;0.85;;;;;;;16.99;55.94;101677.59;5003608;28;20042;-61
2022/05/26 00:27:23;;;;;;;2.97;1.30;;;;;;;16.99;55.90;101673.00;5001335;28;20074;-61
2022/05/26 00:29:53;;;;;;;2.10;0.77;;;;;;;16.99;56.01;101680.31;5004198;28;20084;-60
2022/05/26 00:32:22;;;;;;;3.50;1.10;;;;;;;16.97;55.92;101677.84;5003203;28;20058;-62
2022/05/26 00:34:49;;;;;;;3.88;1.65;;;;;;;16.96;55.97;101684.34;5003221;28;20074;-61
2022/05/26 00:37:17;;;;;;;2.45;1.00;;;;;;;16.96;56.10;101684.34;5003300;28;20074;-61
2022/05/26 00:39:46;;;;;;;5.80;1.65;;;;;;;16.95;56.49;101687.31;5003702;28;20046;-61
2022/05/26 00:42:14;;;;;;;3.35;1.10;;;;;;;16.94;56.53;101686.47;5003458;28;20105;-61
2022/05/26 00:44:42;;;;;;;4.07;1.17;;;;;;;16.94;56.48;101688.38;5004546;28;20057;-61
2022/05/26 00:47:15;;;;;;;4.55;1.52;;;;;;;16.93;56.38;101690.28;5002680;28;20050;-61
2022/05/26 00:49:47;;;;;;;8.60;1.35;;;;;;;16.92;56.29;101688.63;5003232;28;20078;-61
2022/05/26 00:52:18;;;;;;;2.42;1.02;;;;;;;16.92;56.29;101686.72;5003047;28;20042;-61
2022/05/26 00:54:51;;;;;;;3.80;1.15;;;;;;;16.91;56.74;101690.50;5003999;28;20076;-61
2022/05/26 00:57:24;;;;;;;6.25;1.50;;;;;;;16.89;56.79;101687.22;5002277;28;20082;-62
2022/05/26 00:59:58;;;;;;;5.28;1.45;;;;;;;16.89;56.60;101686.38;5004224;28;20069;-61
2022/05/26 01:02:33;;;;;;;2.25;1.10;;;;;;;16.89;56.71;101691.81;5003144;28;20047;-61
2022/05/26 01:05:09;;;;;;;4.53;1.20;;;;;;;16.86;56.52;101686.88;5003462;28;20050;-61
2022/05/26 01:07:39;;;;;;;3.33;1.10;;;;;;;16.88;56.50;101687.47;4999984;28;20089;-61
2022/05/26 01:10:10;;;;;;;2.25;1.23;;;;;;;16.88;56.67;101687.47;5002979;28;20566;-61
2022/05/26 01:12:39;;;;;;;4.45;1.58;;;;;;;16.83;56.81;101680.03;5003612;28;20383;-61
2022/05/26 01:15:10;;;;;;;4.05;1.40;;;;;;;16.86;56.89;101693.13;5003010;28;20140;-61
2022/05/26 01:17:48;;;;;;;5.10;1.52;;;;;;;16.86;56.65;101698.56;5001195;28;20092;-61
2022/05/26 01:20:44;;;;;;;4.65;1.40;;;;;;;16.84;57.04;101695.25;5003686;28;20485;-61
2022/05/26 01:23:42;;;;;;;3.33;1.17;;;;;;;16.84;57.08;101697.16;4988371;28;20073;-61
2022/05/26 01:26:24;;;;;;;;;;;;;;;16.83;57.06;101700.94;5004330;28;20443;-61
2022/05/26 01:29:28;;;;;;;3.47;1.17;;;;;;;16.82;57.42;101705.53;5004639;28;19957;-61
2022/05/26 01:32:08;;;;;;;8.00;2.25;;;;;;;16.82;57.43;101710.97;5001148;28;20073;-61
2022/05/26 01:34:44;;;;;;;6.82;1.23;;;;;;;16.82;57.65;101699.28;5006689;28;20065;-61
2022/05/26 01:37:19;;;;;;;5.43;1.50;;;;;;;16.81;57.74;101701.19;5006791;28;20976;-61
2022/05/26 01:39:56;;;;;;;3.03;1.30;;;;;;;16.80;57.63;101696.81;5009789;28;20081;-62
2022/05/26 01:42:32;;;;;;;5.05;1.42;;;;;;;16.80;57.70;101699.53;5007122;28;20096;-61
2022/05/26 01:45:08;;;;;;;4.38;1.48;;;;;;;16.80;57.53;101706.84;5008041;28;20062;-61
2022/05/26 01:47:46;;;;;;;9.20;2.22;;;;;;;16.79;57.52;101706.03;5006326;28;20067;-61
2022/05/26 01:50:24;;;;;;;6.38;1.30;;;;;;;16.79;57.40;101710.63;5005385;28;20126;-62
2022/05/26 01:53:06;;;;;;;5.90;1.67;;;;;;;16.79;57.78;101719.59;5007152;28;20042;-62
2022/05/26 01:55:42;;;;;;;3.72;1.23;;;;;;;16.79;58.04;101721.50;5007224;28;20054;-62
2022/05/26 01:58:16;;;;;;;5.20;2.22;;;;;;;16.76;58.16;101714.66;5006884;28;20066;-62
2022/05/26 02:00:45;;;;;;;5.90;1.70;;;;;;;16.76;58.19;101728.22;5005005;28;20046;-62
2022/05/26 02:03:19;;;;;;;7.30;1.90;;;;;;;16.76;58.13;101725.50;5006014;28;20369;-62
2022/05/26 02:05:52;;;;;;;6.07;1.63;;;;;;;16.76;58.34;101735.53;5007294;28;20108;-62
2022/05/26 02:08:24;;;;;;;3.70;1.45;;;;;;;16.75;58.13;101720.31;5003462;28;20059;-62
2022/05/26 02:10:57;;;;;;;6.65;1.85;;;;;;;16.75;58.44;101726.56;5004713;28;20046;-62
2022/05/26 02:13:34;;;;;;;5.13;1.88;;;;;;;16.74;58.62;101730.34;5006681;28;20516;-62
2022/05/26 02:16:09;;;;;;;5.43;1.67;;;;;;;16.74;58.67;101735.78;5005002;28;20057;-62
2022/05/26 02:18:44;;;;;;;6.45;2.20;;;;;;;16.73;58.48;101736.84;5005784;28;20436;-62
2022/05/26 02:21:18;;;;;;;6.07;1.80;;;;;;;16.74;58.41;101737.69;4995102;28;20058;-62
2022/05/26 02:23:52;;;;;;;4.90;1.90;;;;;;;16.73;58.11;101745.00;5007025;28;20086;-62
2022/05/26 02:26:19;;;;;;;11.52;2.50;;;;;;;16.73;58.29;101747.72;5005667;28;20081;-61
2022/05/26 02:31:34;;;;;;;4.38;2.38;;;;;;;16.72;58.54;101745.25;5002534;28;20046;-61
2022/05/26 02:34:05;;;;;;;7.63;2.00;;;;;;;16.71;58.47;101749.00;5005005;28;20054;-62
2022/05/26 02:36:36;;;;;;;5.90;1.80;;;;;;;16.71;58.24;101757.97;5006764;28;20081;-61
2022/05/26 02:39:05;;;;;;;7.18;1.98;;;;;;;16.69;58.60;101754.69;5005418;28;20082;-61
2022/05/26 02:41:34;;;;;;;8.57;2.83;;;;;;;16.69;58.53;101756.56;5004722;28;20085;-61
2022/05/26 02:44:02;;;;;;;8.88;2.70;;;;;;;16.68;58.78;101761.19;5005855;28;20074;-61
2022/05/26 02:46:45;;;;;;;9.88;2.60;;;;;;;16.68;58.74;101760.34;5006111;28;20054;-60
2022/05/26 02:49:33;;;;;;;7.97;2.45;;;;;;;16.66;58.54;101760.59;4994800;28;20089;-62
2022/05/26 02:52:10;;;;;;;7.93;3.17;;;;;;;16.66;59.00;101763.31;5005727;28;20101;-61
2022/05/26 02:54:50;;;;;;;6.45;2.53;;;;;;;16.66;59.16;101762.47;5003764;28;20058;-61
2022/05/26 02:57:24;;;;;;;9.55;2.75;;;;;;;16.64;59.17;101765.41;5006738;28;20074;-61
2022/05/26 03:00:02;;;;;;;7.57;2.78;;;;;;;16.63;58.99;101761.03;5004684;28;20081;-61
2022/05/26 03:02:36;;;;;;;7.60;2.28;;;;;;;16.63;58.98;101760.22;5003958;28;20534;-60
2022/05/26 03:05:10;;;;;;;16.48;3.45;;;;;;;16.62;58.92;101762.09;5004845;28;20081;-61
2022/05/26 03:07:42;;;;;;;8.27;2.97;;;;;;;16.62;59.06;101769.41;5006216;28;20062;-61
2022/05/26 03:10:11;;;;;;;7.47;3.03;;;;;;;16.60;59.03;101765.06;5005520;28;20070;-61
2022/05/26 03:12:38;;;;;;;9.20;3.67;;;;;;;16.61;59.04;101768.59;5000607;28;20114;-61
2022/05/26 03:15:09;;;;;;;10.48;2.80;;;;;;;16.62;59.13;101767.53;5005931;28;20106;-61
2022/05/26 03:17:37;;;;;;;8.23;3.08;;;;;;;16.62;58.92;101766.72;5013718;28;20093;-60
2022/05/26 03:20:07;;;;;;;8.93;2.90;;;;;;;16.60;59.10;101767.78;4996585;28;20050;-61
2022/05/26 03:22:35;;;;;;;10.07;3.00;;;;;;;16.57;59.18;101760.09;5003862;28;20085;-61
2022/05/26 03:25:03;;;;;;;8.48;3.60;;;;;;;16.58;59.21;101769.91;5005209;28;20523;-61
2022/05/26 03:27:31;;;;;;;11.05;2.90;;;;;;;16.58;59.06;101772.63;5005358;28;20058;-61
2022/05/26 03:29:59;;;;;;;10.82;3.13;;;;;;;16.59;59.08;101776.16;5005598;28;20042;-60
2022/05/26 03:32:27;;;;;;;12.88;3.85;;;;;;;16.59;59.00;101778.88;5004083;28;20057;-61
2022/05/26 03:43:12;;;;;;;6.25;2.83;;;;;;;16.55;59.12;101783.94;4965097;28;20043;-62
2022/05/26 03:45:40;;;;;;;14.45;3.53;;;;;;;16.56;59.39;101791.03;4968484;28;20137;-61
2022/05/26 03:48:09;;;;;;;13.43;3.22;;;;;;;16.56;59.39;101792.91;4964990;28;20066;-61
2022/05/26 03:50:37;;;;;;;9.15;2.70;;;;;;;16.56;59.42;101798.34;4966343;28;20062;-61
2022/05/26 03:53:07;;;;;;;11.65;3.72;;;;;;;16.54;59.10;101801.28;4965253;28;20051;-62
2022/05/26 03:55:35;;;;;;;12.63;3.45;;;;;;;16.53;59.38;101804.25;4965921;28;20080;-61
2022/05/26 03:58:03;;;;;;;12.57;3.90;;;;;;;16.51;59.13;101807.19;4966317;28;20074;-61
2022/05/26 04:00:32;;;;;;;14.23;3.90;;;;;;;16.51;59.42;101804.47;4965209;28;20051;-61
2022/05/26 04:02:59;;;;;;;7.82;3.58;;;;;;;16.51;59.52;101803.66;4964558;28;20062;-61
2022/05/26 04:05:28;;;;;;;9.30;3.25;;;;;;;16.49;59.38;101805.78;4964907;28;20053;-60
2022/05/26 04:07:55;;;;;;;13.35;4.15;;;;;;;16.50;59.53;101812.88;4956614;28;20051;-61
2022/05/26 04:10:25;;;;;;;11.20;3.25;;;;;;;16.49;59.44;101814.75;4965574;28;20089;-61
2022/05/26 04:12:53;;;;;;;13.50;4.93;;;;;;;16.48;59.48;101815.81;4965536;28;20078;-61
2022/05/26 04:15:21;;;;;;;15.80;3.95;;;;;;;16.47;59.70;101822.31;4964319;28;20055;-61
2022/05/26 04:17:48;;;;;;;12.60;4.43;;;;;;;16.47;59.65;101821.47;4964252;28;20082;-61
2022/05/26 04:20:19;;;;;;;16.25;4.38;;;;;;;16.46;59.90;101823.38;4965958;28;20055;-60
2022/05/26 04:22:47;;;;;;;9.93;2.72;;;;;;;16.46;59.70;101819.81;4965484;29;20055;-61
2022/05/26 04:25:17;;;;;;;9.57;3.40;;;;;;;16.44;59.53;101821.94;4963886;28;20142;-62
2022/05/26 04:27:46;;;;;;;8.75;3.28;;;;;;;16.44;59.53;101824.66;4959895;28;20047;-61
2022/05/26 04:30:14;;;;;;;15.13;3.80;;;;;;;16.43;59.65;101831.16;4964870;28;20110;-62
2022/05/26 04:32:42;;;;;;;12.95;3.58;;;;;;;16.43;59.39;101833.88;4962322;28;20084;-61
2022/05/26 04:35:11;;;;;;;10.93;3.08;;;;;;;16.42;59.46;101834.94;4965522;28;20047;-61
2022/05/26 04:37:40;;;;;;;9.70;4.05;;;;;;;16.41;59.67;101833.28;4964047;28;20074;-61
2022/05/26 04:40:10;;;;;;;12.77;4.00;;;;;;;16.41;59.54;101844.97;5001129;28;20054;-61
2022/05/26 04:42:39;;;;;;;12.43;3.35;;;;;;;16.41;59.78;101836.81;5003147;28;20058;-61
2022/05/26 04:45:12;;;;;;;11.85;3.05;;;;;;;16.42;59.74;101835.75;5004374;28;20050;-61
2022/05/26 04:47:41;;;;;;;14.55;4.05;;;;;;;16.41;59.55;101831.38;5001392;28;20361;-62
2022/05/26 04:50:10;;;;;;;9.98;3.40;;;;;;;16.41;59.87;101841.41;5003918;28;20346;-61
2022/05/26 04:52:38;;;;;;;10.65;3.60;;;;;;;16.40;59.74;101842.47;5003528;28;20268;-61
2022/05/26 04:55:07;;;;;;;10.48;3.58;;;;;;;16.41;59.71;101846.84;5004164;28;20078;-61
2022/05/26 04:57:35;;;;;;;14.07;3.45;;;;;;;16.40;59.70;101851.44;5002283;28;20078;-61
2022/05/26 05:00:05;;;;;;;13.25;4.15;;;;;;;16.40;59.86;101850.63;5004467;28;20054;-60
2022/05/26 05:02:34;;;;;;;10.80;3.17;;;;;;;16.40;59.79;101853.34;5003816;28;20085;-61
2022/05/26 05:05:02;;;;;;;13.77;3.80;;;;;;;16.40;59.75;101854.16;5003362;28;20042;-61
2022/05/26 05:07:30;;;;;;;14.55;3.50;;;;;;;16.38;59.88;101852.75;5022163;28;20073;-62
2022/05/26 05:09:58;;;;;;;13.23;3.47;;;;;;;16.40;60.01;101873.16;5010166;28;20050;-61
2022/05/26 05:12:26;;;;;;;15.57;4.22;;;;;;;16.41;59.61;101868.56;5003306;28;20430;-61
2022/05/26 05:14:56;;;;;;;10.27;3.67;;;;;;;16.40;59.95;101870.44;4656971;28;10000555;-60
2022/05/26 05:17:26;;;;;;;17.02;4.50;;;;;;;16.40;59.85;101873.16;4998143;28;20076;-62
2022/05/26 05:19:55;;;;;;;14.73;3.65;;;;;;;16.40;60.23;101875.03;4999931;28;20124;-61
2022/05/26 05:22:28;;;;;;;12.10;4.40;;;;;;;16.39;60.37;101878.81;5001214;28;20085;-61
2022/05/26 05:24:59;;;;;;;14.13;3.95;;;;;;;16.38;60.31;101872.56;5000845;28;20070;-61
2022/05/26 05:27:34;;;;;;;13.60;4.35;;;;;;;16.39;60.07;101885.06;4998861;28;20167;-62
2022/05/26 05:30:08;;;;;;;12.32;3.70;;;;;;;16.39;59.80;101886.94;5001418;28;20464;-61
2022/05/26 05:32:42;;;;;;;13.02;3.67;;;;;;;16.40;60.01;101894.03;4999450;28;20349;-61
2022/05/26 05:35:15;;;;;;;15.73;3.40;;;;;;;16.39;60.12;101895.09;5000425;28;20519;-61
2022/05/26 05:37:43;;;;;;;17.42;4.15;;;;;;;16.39;60.14;101901.34;4999524;28;20054;-61
2022/05/26 05:40:12;;;;;;;15.05;4.28;;;;;;;16.36;60.29;101895.56;4998277;28;20082;-64
2022/05/26 05:42:41;;;;;;;14.75;4.13;;;;;;;16.39;60.26;101903.22;4999819;28;20129;-59
2022/05/26 05:45:10;;;;;;;13.65;4.20;;;;;;;16.38;60.34;101909.72;4998920;28;20506;-62
2022/05/26 05:47:38;;;;;;;16.77;3.92;;;;;;;16.38;60.35;101901.56;4998104;28;20050;-62
2022/05/26 05:50:07;;;;;;;12.13;3.72;;;;;;;16.38;60.33;101913.25;4999431;28;20448;-61
2022/05/26 05:52:37;;;;;;;14.90;4.53;;;;;;;16.35;60.27;101904.75;4997438;28;20074;-63
2022/05/26 05:55:06;;;;;;;12.00;4.03;;;;;;;16.37;60.33;101922.47;4998077;28;20515;-61
2022/05/26 05:57:36;;;;;;;17.67;4.57;;;;;;;16.38;60.66;101913.25;4986326;28;20046;-60
2022/05/26 06:00:07;;;;;;;12.48;4.00;;;;;;;16.37;60.17;101919.75;4999013;28;20058;-59
2022/05/26 06:02:35;;;;;;;15.50;3.90;;;;;;;16.38;60.72;101929.53;4997469;28;20050;-60
2022/05/26 06:05:05;;;;;;;15.20;4.32;;;;;;;16.39;60.45;101925.75;4998656;28;20408;-60
2022/05/26 06:07:34;;;;;;;13.88;4.70;;;;;;;16.37;60.50;101925.16;4998889;28;20054;-60
2022/05/26 06:10:04;;;;;;;15.35;4.85;;;;;;;16.40;60.71;101923.88;4999924;28;20065;-59
2022/05/26 06:12:32;;;;;;;18.17;4.10;;;;;;;16.40;60.69;101930.13;4999691;28;20065;-60
2022/05/26 06:14:59;;;;;;;13.00;4.03;;;;;;;16.41;60.38;101936.38;4656384;28;10000603;-60
2022/05/26 06:17:27;;;;;;;13.65;4.95;;;;;;;16.42;60.69;101938.88;4999834;28;20084;-61
2022/05/26 06:19:55;;;;;;;15.27;4.38;;;;;;;16.43;60.67;101932.38;5006236;28;20046;-61
2022/05/26 06:22:24;;;;;;;15.27;5.10;;;;;;;16.43;60.79;101945.94;5005809;28;20078;-60
2022/05/26 06:24:52;;;;;;;19.15;6.90;;;;;;;16.44;60.78;101952.19;5005333;28;20049;-60
2022/05/26 06:30:10;;;;;;;16.58;5.97;;;;;;;16.46;61.21;101950.06;5005159;28;20047;-60
2022/05/26 06:38:18;;;;;;;18.40;6.57;;;;;;;16.46;61.01;101959.03;5004759;28;20058;-62
2022/05/26 06:40:45;;;;;;;18.92;6.85;;;;;;;16.44;61.17;101958.44;4998073;28;20136;-62
2022/05/26 06:43:15;;;;;;;18.50;7.15;;;;;;;16.46;61.01;101961.75;5001634;28;20184;-60
2022/05/26 06:45:46;;;;;;;16.90;6.80;;;;;;;16.47;61.29;101968.00;5002494;28;20050;-63
2022/05/26 06:48:15;;;;;;;14.23;6.80;;;;;;;16.47;61.13;101968.84;5000361;28;20058;-63
2022/05/26 06:50:43;;;;;;;16.50;6.10;;;;;;;16.47;61.06;101974.25;4999272;28;20364;-64
2022/05/26 06:53:11;;;;;;;18.48;6.85;;;;;;;16.47;60.96;101968.00;4998850;28;20053;-65
2022/05/26 06:55:39;;;;;;;17.15;6.70;;;;;;;16.50;60.91;101975.69;5001463;28;20055;-62
2022/05/26 06:58:07;;;;;;;13.57;6.50;;;;;;;16.51;60.91;101977.34;4999999;28;20142;-65
2022/05/26 07:00:36;;;;;;;19.23;7.13;;;;;;;16.52;60.73;101974.41;5001803;28;20450;-64
2022/05/26 07:03:04;;;;;;;23.98;8.35;;;;;;;16.51;60.78;101980.88;4999973;28;20054;-62
2022/05/26 07:05:35;;;;;;;18.98;8.13;;;;;;;16.53;60.85;101988.78;5002578;28;20046;-62
2022/05/26 07:08:03;;;;;;;23.17;8.15;;;;;;;16.53;60.92;101992.31;5003570;28;20134;-62
2022/05/26 07:10:33;;;;;;;16.13;7.25;;;;;;;16.54;60.80;101993.16;5004203;28;20064;-62
2022/05/26 07:13:01;;;;;;;19.35;8.05;;;;;;;16.54;60.84;101993.16;5001887;28;20077;-61
2022/05/26 07:15:29;;;;;;;17.48;7.63;;;;;;;16.55;60.83;101992.09;5002081;28;20081;-62
2022/05/26 07:17:58;;;;;;;15.38;6.82;;;;;;;16.55;61.00;101998.34;4995178;28;20093;-61
2022/05/26 07:20:26;;;;;;;16.50;7.50;;;;;;;16.55;60.76;102000.25;5000271;28;20121;-62
2022/05/26 07:22:54;;;;;;;22.17;8.18;;;;;;;16.55;60.84;102003.78;5001043;28;20046;-62
2022/05/26 07:25:21;;;;;;;19.02;9.15;;;;;;;16.56;60.83;102007.31;5006817;28;20123;-61
2022/05/26 07:27:49;;;;;;;20.42;8.77;;;;;;;16.56;61.17;102002.72;5000857;28;20081;-62
2022/05/26 07:30:17;;;;;;;15.48;8.98;;;;;;;16.56;60.83;101996.47;5010419;28;20344;-61
2022/05/26 07:32:44;;;;;;;13.07;7.63;;;;;;;16.56;61.05;102008.16;5000233;28;20050;-63
2022/05/26 07:35:13;;;;;;;20.58;9.45;;;;;;;16.61;60.92;102015.59;5001063;28;20084;-65
2022/05/26 07:43:17;;;;;;;22.55;8.32;;;;;;;16.60;60.87;102014.75;5002713;28;20089;-62
2022/05/26 07:45:45;;;;;;;21.17;9.57;;;;;;;16.62;60.77;102019.97;5001879;28;20046;-63
2022/05/26 07:48:13;;;;;;;17.42;7.95;;;;;;;16.60;60.83;102028.34;5003362;28;20046;-63
2022/05/26 07:50:42;;;;;;;16.95;9.15;;;;;;;16.62;60.72;102025.38;5000570;28;20073;-63
2022/05/26 07:53:11;;;;;;;17.05;9.60;;;;;;;16.63;60.72;102029.75;5000999;28;20078;-63
2022/05/26 07:55:42;;;;;;;19.73;10.23;;;;;;;16.70;60.47;102021.53;5005250;28;20046;-62
2022/05/26 07:58:10;;;;;;;20.95;8.82;;;;;;;16.68;60.72;102029.09;5005282;28;20414;-63
2022/05/26 08:00:38;;;;;;;15.98;9.25;;;;;;;16.59;60.73;102009.56;5005321;28;20192;-64
2022/05/26 08:03:07;;;;;;;13.88;8.63;;;;;;;16.69;60.67;102023.41;5002563;28;20114;-63
2022/05/26 08:05:35;;;;;;;20.52;9.27;;;;;;;16.70;60.72;102026.97;5003913;28;20054;-63
2022/05/26 08:08:05;;;;;;;17.00;9.18;;;;;;;16.73;60.60;102023.78;5005638;28;20050;-63
2022/05/26 08:10:33;;;;;;;15.40;9.50;;;;;;;16.78;60.50;102030.16;5005451;28;20046;-63
2022/05/26 08:13:01;;;;;;;15.57;9.60;;;;;;;16.76;60.49;102032.28;5005007;28;20046;-63
2022/05/26 08:15:31;;;;;;;13.82;8.80;;;;;;;16.78;60.48;102034.78;5004801;28;20065;-63
2022/05/26 08:17:59;;;;;;;18.45;10.43;;;;;;;16.78;60.42;102043.75;5004373;28;20053;-63
2022/05/26 08:20:27;;;;;;;14.43;8.98;;;;;;;16.80;60.40;102038.91;5000009;28;20055;-63
2022/05/26 08:22:55;;;;;;;12.05;8.82;;;;;;;16.85;60.73;102040.91;5000490;28;20070;-62
2022/05/26 08:25:26;;;;;;;11.90;9.30;;;;;;;16.87;60.59;102031.47;5000708;28;20051;-65
2022/05/26 08:27:54;;;;;;;22.02;9.60;;;;;;;16.92;60.57;102034.31;5001794;28;20161;-64
2022/05/26 08:30:21;;;;;;;13.25;8.88;;;;;;;16.94;60.55;102047.66;5002869;28;20488;-61
2022/05/26 08:32:52;;;;;;;14.98;10.15;;;;;;;16.95;60.17;102043.06;5005094;28;20050;-64
2022/05/26 08:35:20;;;;;;;16.63;10.60;;;;;;;16.97;59.96;102049.06;5002509;28;20425;-63
2022/05/26 08:37:48;;;;;;;13.23;9.75;;;;;;;16.99;60.03;102046.94;5004511;28;20180;-63
2022/05/26 08:40:33;;;;;;;16.92;9.75;;;;;;;17.01;60.08;102040.22;5005619;28;20065;-65
2022/05/26 08:43:02;;;;;;;13.43;9.32;;;;;;;17.03;60.11;102045.41;5005512;28;20046;-64
2022/05/26 08:45:33;;;;;;;16.30;10.02;;;;;;;17.08;60.76;102045.53;4999759;28;20046;-64
2022/05/26 08:48:02;;;;;;;13.85;10.15;;;;;;;17.07;60.16;102060.19;4998875;28;20093;-65
2022/05/26 08:50:34;;;;;;;11.77;8.93;;;;;;;17.09;60.37;102053.44;5002031;28;20085;-64
2022/05/26 08:53:08;;;;;;;12.57;9.13;;;;;;;17.10;60.08;102057.00;5002614;28;20093;-64
2022/05/26 08:55:43;;;;;;;14.10;9.98;;;;;;;17.13;59.91;102053.81;5004025;28;20046;-64
2022/05/26 08:58:16;;;;;;;14.15;10.95;;;;;;;17.14;60.86;102056.28;5005805;28;20065;-65
2022/05/26 09:00:46;;;;;;;16.83;10.70;;;;;;;17.16;60.35;102061.47;5001968;28;20081;-62
2022/05/26 09:03:24;;;;;;;13.20;10.23;;;;;;;17.17;60.00;102065.84;5000319;28;20054;-64
2022/05/26 09:06:01;;;;;;;14.75;9.55;;;;;;;17.16;60.07;102066.91;5003104;28;20096;-63
2022/05/26 09:14:23;;;;;;;18.45;10.68;;;;;;;17.22;59.68;102071.41;4924618;29;20087;-64
2022/05/26 09:16:55;;;;;;;15.45;9.77;;;;;;;17.23;59.69;102076.59;4920560;29;20051;-64
2022/05/26 09:19:24;;;;;;;12.68;10.07;;;;;;;17.23;59.42;102076.59;4922072;29;20056;-64
2022/05/26 09:21:53;;;;;;;15.13;9.98;;;;;;;17.24;59.32;102070.13;4925986;29;20167;-65
2022/05/26 09:24:24;;;;;;;14.77;10.15;;;;;;;17.28;59.56;102073.19;4923689;29;20179;-64
2022/05/26 09:26:59;;;;;;;14.25;8.75;;;;;;;17.30;59.44;102071.06;4924981;29;20072;-65
2022/05/26 09:29:29;;;;;;;13.15;9.60;;;;;;;17.31;59.40;102072.72;4923883;29;20059;-63
2022/05/26 09:31:59;;;;;;;15.27;9.98;;;;;;;17.34;59.34;102079.53;4923952;29;20076;-65
2022/05/26 09:35:05;;;;;;;14.40;9.00;;;;;;;17.36;59.25;102080.13;4930132;29;20064;-64
2022/05/26 09:37:42;;;;;;;12.82;8.40;;;;;;;17.38;59.11;102083.44;4924247;29;20072;-66
2022/05/26 09:40:18;;;;;;;10.57;7.75;;;;;;;17.39;59.08;102091.34;4923621;29;20056;-67
2022/05/26 09:42:52;;;;;;;16.27;8.07;;;;;;;17.42;59.13;102095.47;4923908;29;20490;-64
2022/05/26 09:45:20;;;;;;;11.80;7.80;;;;;;;17.43;58.89;102097.13;4923586;29;20493;-64
2022/05/26 09:47:53;;;;;;;12.05;7.95;;;;;;;17.45;58.84;102097.72;4940157;28;20163;-64
2022/05/26 09:50:41;;;;;;;13.85;7.35;;;;;;;17.47;58.86;102092.88;5007943;28;20054;-64
2022/05/26 09:53:11;;;;;;;10.68;6.82;;;;;;;17.48;58.76;102099.97;4998464;28;20074;-65
2022/05/26 09:55:47;;;;;;;12.77;6.53;;;;;;;17.49;58.79;102093.47;5007116;28;20066;-64
2022/05/26 09:58:28;;;;;;;10.10;5.47;;;;;;;17.53;59.40;102100.09;5004108;28;20425;-64
2022/05/26 10:00:58;;;;;;;10.55;6.10;;;;;;;17.57;59.21;102102.09;5010094;28;20084;-63
2022/05/26 10:03:34;;;;;;;9.52;6.97;;;;;;;17.60;59.22;102098.06;5005369;28;20077;-63
2022/05/26 10:06:15;;;;;;;10.00;6.22;;;;;;;17.62;58.79;102092.41;5008044;28;20057;-63
2022/05/26 10:08:56;;;;;;;8.98;6.22;;;;;;;17.58;58.62;102084.72;5011293;28;20110;-63
2022/05/26 10:11:37;;;;;;;9.85;5.82;;;;;;;17.64;58.55;102088.38;5004832;28;20050;-64
2022/05/26 10:14:17;;;;;;;8.52;5.75;;;;;;;17.67;58.55;102101.53;5006263;28;20077;-63
2022/05/26 10:17:00;;;;;;;15.30;6.05;;;;;;;17.68;58.45;102105.88;4919723;28;10000633;-64
2022/05/26 10:19:48;;;;;;;10.68;5.35;;;;;;;17.71;58.24;102104.59;5001716;28;20178;-63
2022/05/26 10:22:40;;;;;;;11.02;5.57;;;;;;;17.76;58.21;102113.69;5001225;28;20081;-64
2022/05/26 10:25:25;;;;;;;10.63;5.40;;;;;;;17.71;58.01;102091.00;5004053;28;20087;-64
2022/05/26 10:28:32;;;;;;;9.02;4.93;;;;;;;17.83;58.62;102102.69;5002134;28;20077;-64
2022/05/26 10:31:10;;;;;;;8.45;4.30;;;;;;;17.78;58.40;102097.97;4987551;28;20140;-64
2022/05/26 10:33:52;;;;;;;8.38;5.03;;;;;;;17.89;58.25;102099.81;5013405;28;20061;-65
2022/05/26 10:36:25;;;;;;;7.57;4.28;;;;;;;17.92;58.00;102103.13;5002114;28;20078;-63
2022/05/26 10:39:10;;;;;;;12.30;4.82;;;;;;;17.94;57.52;102106.44;5006182;28;20061;-65
2022/05/26 10:41:44;;;;;;;6.43;3.67;;;;;;;17.93;57.48;102105.63;4998912;28;20060;-64
2022/05/26 10:44:23;;;;;;;6.00;4.20;;;;;;;17.93;57.43;102102.06;5004108;28;20050;-65
2022/05/26 10:46:59;;;;;;;8.98;3.60;;;;;;;17.93;57.42;102097.44;5005006;28;20073;-65
2022/05/26 10:49:37;;;;;;;14.30;4.65;;;;;;;18.00;58.06;102094.59;5000676;28;20113;-66
2022/05/26 10:52:12;;;;;;;8.05;3.67;;;;;;;18.01;57.46;102093.53;5000900;28;20372;-65
2022/05/26 10:54:49;;;;;;;9.65;3.78;;;;;;;18.12;58.40;102106.28;5006808;28;20108;-69
2022/05/26 10:57:26;;;;;;;10.65;3.95;;;;;;;18.20;58.51;102093.13;5001620;28;20058;-68
2022/05/26 11:00:01;;;;;;;8.32;3.40;;;;;;;18.20;57.91;102097.72;5000231;28;20050;-68
2022/05/26 11:02:38;;;;;;;5.78;3.60;;;;;;;18.21;57.15;102099.38;4648954;28;10000101;-65
2022/05/26 11:05:09;;;;;;;5.82;3.65;;;;;;;18.21;57.29;102111.09;5002940;28;20058;-68
2022/05/26 11:07:42;;;;;;;6.97;3.33;;;;;;;18.23;56.93;102113.56;5004250;28;20559;-67
2022/05/26 11:10:15;;;;;;;7.50;3.75;;;;;;;18.23;57.13;102094.53;5004160;28;20081;-69
2022/05/26 11:12:48;;;;;;;7.43;3.78;;;;;;;18.25;57.03;102097.81;5001574;28;20047;-68
2022/05/26 11:18:15;;;;;;;8.75;4.20;;;;;;;18.27;56.41;102103.84;5004792;28;20046;-69
2022/05/26 11:20:49;;;;;;;9.27;3.45;;;;;;;18.31;56.61;102112.38;5004532;28;20066;-69
2022/05/26 11:23:18;;;;;;;5.85;3.28;;;;;;;18.31;56.40;102115.91;5005071;28;20054;-68
2022/05/26 11:25:56;;;;;;;8.02;3.50;;;;;;;18.31;56.12;102115.09;5008810;28;20095;-67
2022/05/26 11:28:32;;;;;;;7.18;3.33;;;;;;;18.31;56.32;102106.91;5006137;28;20058;-69
2022/05/26 11:36:43;;;;;;;8.27;4.07;;;;;;;18.36;56.24;102107.00;4973053;28;20073;-68
2022/05/26 11:39:20;;;;;;;8.60;3.95;;;;;;;18.37;55.83;102108.66;5003062;28;20086;-66
2022/05/26 11:41:52;;;;;;;13.77;4.50;;;;;;;18.38;55.86;102108.44;5006405;28;20065;-68
2022/05/26 11:44:39;;;;;;;7.15;4.05;;;;;;;18.40;56.16;102097.28;5005419;28;20054;-69
2022/05/26 11:47:29;;;;;;;9.60;3.38;;;;;;;18.41;55.64;102096.22;4993968;28;20683;-69
2022/05/26 11:50:22;;;;;;;7.40;3.75;;;;;;;18.43;55.67;102091.38;5004168;28;20046;-69
2022/05/26 11:53:10;;;;;;;8.27;3.42;;;;;;;18.47;55.98;102093.34;5004796;28;20045;-68
2022/05/26 11:55:53;;;;;;;8.05;3.40;;;;;;;18.49;55.43;102082.22;4986461;28;20055;-68
2022/05/26 11:58:35;;;;;;;9.23;4.22;;;;;;;18.51;55.33;102078.19;4995096;28;20076;-69
2022/05/26 12:01:33;;;;;;;7.82;3.55;;;;;;;18.53;55.22;102075.22;5004135;28;20054;-69
2022/05/26 12:04:14;;;;;;;7.97;3.72;;;;;;;18.55;55.12;102078.53;4985954;28;20074;-69
2022/05/26 12:06:56;;;;;;;7.85;3.75;;;;;;;18.56;55.02;102076.63;5005354;28;20148;-69
2022/05/26 12:09:32;;;;;;;8.40;3.25;;;;;;;18.56;54.96;102072.00;5005807;28;20078;-69
2022/05/26 12:12:02;;;;;;;10.80;3.72;;;;;;;18.61;55.34;102077.56;5004513;28;20524;-69
2022/05/26 12:14:34;;;;;;;9.45;3.53;;;;;;;18.64;55.34;102074.34;5005011;28;20113;-69
2022/05/26 12:17:29;;;;;;;8.75;3.10;;;;;;;18.67;55.23;102068.41;5005400;28;20046;-68
2022/05/26 12:19:59;;;;;;;7.65;3.10;;;;;;;18.69;54.92;102066.28;5005793;28;20050;-69
2022/05/26 12:22:31;;;;;;;6.50;3.65;;;;;;;18.71;55.29;102057.88;5003879;28;20141;-69